Time;durP1;ratioP1;P1;durP2;ratioP2;P2;SDS_P1;SDS_P2;PMS_P1;PMS_P2;Temp;Humidity;BMP_temperature;BMP_pressure;BME280_temperature;BME280_humidity;BME280_pressure;Samples;Min_cycle;Max_cycle;Signal;HPM_P1;HPM_P2
2023/05/23 00:00:18;;;;;;;26.13;15.15;;;14.90;99.90;;;;;;5009538;28;20089;-80
2023/05/23 00:02:43;;;;;;;25.42;15.50;;;13.90;99.90;;;;;;4992125;28;20136;-85
2023/05/23 00:05:09;;;;;;;24.10;14.35;;;13.90;99.90;;;;;;5009781;28;20464;-85
2023/05/23 00:07:35;;;;;;;23.40;13.85;;;15.30;99.90;;;;;;5009275;28;20050;-85
2023/05/23 00:10:00;;;;;;;23.88;13.60;;;13.90;99.90;;;;;;5008473;28;20046;-86
2023/05/23 00:12:26;;;;;;;23.48;14.20;;;15.00;99.90;;;;;;5010382;28;20041;-84
2023/05/23 00:14:52;;;;;;;22.98;13.05;;;13.90;99.90;;;;;;5007375;28;20486;-83
2023/05/23 00:17:18;;;;;;;20.35;12.65;;;13.90;99.90;;;;;;5009680;28;20065;-81
2023/05/23 00:19:47;;;;;;;18.00;11.73;;;13.90;99.90;;;;;;4999886;28;20058;-83
2023/05/23 00:22:14;;;;;;;24.67;13.82;;;13.90;99.90;;;;;;4989420;28;20042;-85
2023/05/23 00:24:40;;;;;;;24.00;13.60;;;13.90;99.90;;;;;;4972136;28;20827;-80
2023/05/23 00:27:05;;;;;;;22.45;12.88;;;14.40;99.90;;;;;;4990141;28;20045;-85
2023/05/23 00:29:31;;;;;;;23.45;13.25;;;14.30;99.90;;;;;;4989726;28;20113;-85
2023/05/23 00:31:56;;;;;;;22.75;12.30;;;13.90;99.90;;;;;;4989917;28;20034;-86
2023/05/23 00:34:22;;;;;;;15.40;10.68;;;14.60;99.90;;;;;;4971925;28;20495;-84
2023/05/23 00:36:49;;;;;;;18.48;11.85;;;14.20;99.90;;;;;;4989930;28;20046;-84
2023/05/23 00:39:20;;;;;;;19.63;11.73;;;15.20;99.90;;;;;;4989678;28;20376;-85
2023/05/23 00:41:47;;;;;;;16.30;10.88;;;13.90;99.90;;;;;;4988570;28;20042;-83
2023/05/23 00:44:13;;;;;;;16.98;11.07;;;13.80;99.90;;;;;;4971143;28;20116;-86
2023/05/23 00:46:40;;;;;;;18.00;10.77;;;14.20;99.90;;;;;;4989208;28;20126;-84
2023/05/23 00:49:05;;;;;;;18.73;11.38;;;13.80;99.90;;;;;;4988775;28;20046;-84
2023/05/23 00:51:32;;;;;;;17.98;10.63;;;14.80;99.90;;;;;;4989276;28;20050;-85
2023/05/23 00:54:00;;;;;;;16.63;10.25;;;13.70;99.90;;;;;;4989119;28;20494;-83
2023/05/23 00:56:26;;;;;;;23.08;10.05;;;13.70;99.90;;;;;;4969131;28;20542;-88
2023/05/23 00:58:53;;;;;;;16.13;9.00;;;14.90;99.90;;;;;;4989974;28;20126;-82
2023/05/23 01:01:19;;;;;;;13.52;9.52;;;13.80;99.90;;;;;;4989386;28;20127;-86
2023/05/23 01:03:47;;;;;;;17.40;7.85;;;13.80;99.90;;;;;;4988993;28;20459;-86
2023/05/23 01:06:13;;;;;;;15.82;7.70;;;13.90;99.90;;;;;;4989781;28;20517;-83
2023/05/23 01:08:41;;;;;;;9.82;6.03;;;15.20;99.90;;;;;;4989793;28;20127;-85
2023/05/23 01:11:21;;;;;;;25.92;7.63;;;13.80;99.90;;;;;;4988662;28;20065;-85
2023/05/23 01:14:03;;;;;;;15.75;7.20;;;13.70;99.90;;;;;;4972599;28;20043;-82
2023/05/23 01:16:47;;;;;;;17.58;7.18;;;13.70;99.90;;;;;;4989386;28;20049;-83
2023/05/23 01:19:49;;;;;;;14.98;7.07;;;15.40;99.90;;;;;;4972579;28;20066;-83
2023/05/23 01:22:40;;;;;;;16.77;7.40;;;13.60;99.90;;;;;;5012704;28;20839;-86
2023/05/23 01:25:24;;;;;;;26.27;7.57;;;13.50;99.90;;;;;;4992353;28;20046;-86
2023/05/23 01:27:54;;;;;;;23.47;9.07;;;13.60;99.90;;;;;;5009848;28;20038;-86
2023/05/23 01:30:22;;;;;;;21.42;8.13;;;13.70;99.90;;;;;;5009187;28;20128;-85
2023/05/23 01:32:50;;;;;;;26.83;8.82;;;15.10;99.90;;;;;;5008133;28;20046;-86
2023/05/23 01:35:23;;;;;;;19.35;9.63;;;13.40;99.90;;;;;;4991345;28;20067;-85
2023/05/23 01:37:48;;;;;;;20.58;8.43;;;13.40;99.90;;;;;;5007926;28;20050;-84
2023/05/23 01:40:14;;;;;;;21.25;9.13;;;14.10;99.90;;;;;;5008556;28;20457;-84
2023/05/23 01:42:40;;;;;;;21.48;9.02;;;13.30;99.90;;;;;;5008313;28;20491;-84
2023/05/23 01:45:06;;;;;;;23.55;10.00;;;14.30;99.90;;;;;;5007639;28;20041;-83
2023/05/23 01:47:34;;;;;;;31.45;10.52;;;13.20;99.90;;;;;;5007798;28;20394;-86
2023/05/23 01:50:01;;;;;;;19.70;9.95;;;13.20;99.90;;;;;;5007956;28;20108;-86
2023/05/23 01:52:27;;;;;;;23.98;10.45;;;13.20;99.90;;;;;;4989785;28;20405;-85
2023/05/23 01:54:54;;;;;;;27.67;10.70;;;14.50;99.90;;;;;;5008502;28;20311;-87
2023/05/23 01:57:21;;;;;;;26.25;10.05;;;13.10;99.90;;;;;;5011661;28;20042;-80
2023/05/23 01:59:47;;;;;;;25.67;10.65;;;13.10;99.90;;;;;;5011647;28;20064;-86
2023/05/23 02:02:12;;;;;;;24.00;10.27;;;15.10;99.90;;;;;;4993889;28;20038;-87
2023/05/23 02:04:38;;;;;;;29.73;11.77;;;15.60;99.90;;;;;;5011523;28;20045;-85
2023/05/23 02:07:04;;;;;;;22.38;11.45;;;12.90;99.90;;;;;;5011871;28;20776;-83
2023/05/23 02:09:30;;;;;;;24.27;9.35;;;12.90;99.90;;;;;;5012123;28;20053;-85
2023/05/23 02:11:56;;;;;;;21.75;8.68;;;12.90;99.90;;;;;;5011329;28;20046;-82
2023/05/23 02:14:22;;;;;;;22.85;9.25;;;14.70;99.90;;;;;;4993309;28;20038;-79
2023/05/23 02:16:48;;;;;;;32.63;10.10;;;12.90;99.90;;;;;;4993515;28;20430;-85
2023/05/23 02:19:14;;;;;;;26.63;9.57;;;14.30;99.90;;;;;;5011450;28;20156;-83
2023/05/23 02:21:39;;;;;;;19.35;7.85;;;14.00;99.90;;;;;;5010096;28;20164;-78
2023/05/23 02:24:05;;;;;;;27.02;8.02;;;12.90;99.90;;;;;;5009311;28;20039;-84
2023/05/23 02:26:31;;;;;;;28.55;8.68;;;12.90;99.90;;;;;;5017456;28;20034;-86
2023/05/23 02:28:57;;;;;;;24.83;8.13;;;14.10;99.90;;;;;;5015510;28;20048;-85
2023/05/23 02:31:22;;;;;;;25.55;8.23;;;12.80;99.90;;;;;;5011578;28;20038;-83
2023/05/23 02:33:48;;;;;;;19.55;7.32;;;13.50;99.90;;;;;;5011605;28;20077;-83
2023/05/23 02:36:13;;;;;;;23.20;8.18;;;12.80;99.90;;;;;;5002787;28;20125;-84
2023/05/23 02:38:39;;;;;;;24.88;8.35;;;12.80;99.90;;;;;;5017725;28;20037;-84
2023/05/23 02:41:05;;;;;;;23.52;7.68;;;12.80;99.90;;;;;;5010964;28;20072;-84
2023/05/23 02:43:30;;;;;;;28.90;7.35;;;12.80;99.90;;;;;;5011268;28;20038;-84
2023/05/23 02:45:56;;;;;;;19.63;6.80;;;12.80;99.90;;;;;;5001498;28;20104;-82
2023/05/23 02:48:22;;;;;;;25.63;6.97;;;12.70;99.90;;;;;;5010641;28;20458;-84
2023/05/23 02:50:48;;;;;;;26.48;7.53;;;14.50;99.90;;;;;;5011815;28;20143;-84
2023/05/23 02:53:13;;;;;;;20.45;6.70;;;12.80;99.90;;;;;;5011426;28;20038;-83
2023/05/23 02:55:39;;;;;;;20.83;7.13;;;12.70;99.90;;;;;;5010658;28;20053;-83
2023/05/23 02:58:05;;;;;;;20.35;6.45;;;12.70;99.90;;;;;;5010781;28;20397;-83
2023/05/23 03:00:31;;;;;;;19.08;7.35;;;14.00;99.90;;;;;;5013523;28;20481;-84
2023/05/23 03:02:57;;;;;;;20.55;6.72;;;12.70;99.90;;;;;;4993251;28;20565;-83
2023/05/23 03:05:23;;;;;;;21.05;7.68;;;12.70;99.90;;;;;;4994008;28;20108;-84
2023/05/23 03:07:50;;;;;;;23.75;8.05;;;12.70;99.90;;;;;;5002627;28;20042;-85
2023/05/23 03:10:16;;;;;;;19.40;7.63;;;12.70;99.90;;;;;;5007374;28;20055;-83
2023/05/23 03:12:42;;;;;;;19.52;7.30;;;12.70;99.90;;;;;;5017127;28;20080;-83
2023/05/23 03:15:09;;;;;;;18.60;7.63;;;13.60;99.90;;;;;;5010886;28;20069;-86
2023/05/23 03:17:35;;;;;;;19.63;8.02;;;12.60;99.90;;;;;;5010127;28;20042;-86
2023/05/23 03:20:00;;;;;;;23.77;7.72;;;12.60;99.90;;;;;;5010513;28;20111;-84
2023/05/23 03:22:26;;;;;;;22.30;6.97;;;12.60;99.90;;;;;;5010755;28;20478;-84
2023/05/23 03:24:52;;;;;;;20.08;6.47;;;12.60;99.90;;;;;;5009412;28;20048;-82
2023/05/23 03:27:17;;;;;;;23.17;6.55;;;13.90;99.90;;;;;;5008917;28;20789;-83
2023/05/23 03:29:43;;;;;;;14.25;6.45;;;14.30;99.90;;;;;;5008745;28;20069;-84
2023/05/23 03:32:08;;;;;;;16.25;6.28;;;12.60;99.90;;;;;;5010021;28;20046;-83
2023/05/23 03:34:35;;;;;;;14.95;5.25;;;14.40;99.90;;;;;;5016231;28;20049;-82
2023/05/23 03:37:01;;;;;;;17.05;6.50;;;12.60;99.90;;;;;;5010209;28;20520;-83
2023/05/23 03:39:26;;;;;;;12.23;5.32;;;14.10;99.90;;;;;;5009330;28;20038;-79
2023/05/23 03:41:52;;;;;;;14.98;5.63;;;12.60;99.90;;;;;;5010529;28;20049;-81
2023/05/23 03:44:17;;;;;;;16.88;5.10;;;13.70;99.90;;;;;;5001076;28;20067;-85
2023/05/23 03:46:43;;;;;;;11.75;4.68;;;13.80;99.90;;;;;;5018464;28;20514;-83
2023/05/23 03:49:09;;;;;;;17.63;5.60;;;12.60;99.90;;;;;;5013137;28;20038;-85
2023/05/23 03:51:34;;;;;;;12.93;4.75;;;12.50;99.90;;;;;;5010288;28;20095;-84
2023/05/23 03:54:00;;;;;;;16.13;4.82;;;13.40;99.90;;;;;;5010076;28;20041;-86
2023/05/23 03:56:26;;;;;;;16.92;4.80;;;14.40;99.90;;;;;;5010180;28;20374;-85
2023/05/23 03:58:51;;;;;;;13.55;4.55;;;12.50;99.90;;;;;;5009925;28;20127;-84
2023/05/23 04:01:17;;;;;;;13.57;4.50;;;12.60;99.90;;;;;;5009844;28;20599;-85
2023/05/23 04:03:44;;;;;;;21.90;5.68;;;12.50;99.90;;;;;;5009526;28;20042;-85
2023/05/23 04:06:10;;;;;;;20.15;4.85;;;13.00;99.90;;;;;;5008162;28;20088;-85
2023/05/23 04:08:36;;;;;;;12.57;4.05;;;12.40;99.90;;;;;;5009738;28;20528;-84
2023/05/23 04:11:01;;;;;;;16.35;5.05;;;12.40;99.90;;;;;;5009646;28;20058;-81
2023/05/23 04:13:29;;;;;;;16.42;4.18;;;12.30;99.90;;;;;;5009293;28;20048;-86
2023/05/23 04:15:55;;;;;;;16.23;4.30;;;12.40;99.90;;;;;;5009843;28;20042;-85
2023/05/23 04:18:22;;;;;;;15.63;3.78;;;12.40;99.90;;;;;;5001610;28;20544;-81
2023/05/23 04:20:48;;;;;;;18.10;4.47;;;12.40;99.90;;;;;;5008846;28;20076;-83
2023/05/23 04:23:13;;;;;;;15.73;3.53;;;12.30;99.90;;;;;;4995439;28;20124;-82
2023/05/23 04:25:39;;;;;;;16.52;4.13;;;13.20;99.90;;;;;;5010049;28;20525;-85
2023/05/23 04:28:09;;;;;;;16.63;4.43;;;12.30;99.90;;;;;;5009230;28;20065;-83
2023/05/23 04:30:35;;;;;;;16.73;4.68;;;12.30;99.90;;;;;;5010505;28;20107;-81
2023/05/23 04:33:00;;;;;;;15.18;3.35;;;12.30;99.90;;;;;;5009183;28;20038;-84
2023/05/23 04:35:27;;;;;;;12.50;3.90;;;12.70;99.90;;;;;;5012381;28;20068;-84
2023/05/23 04:37:55;;;;;;;17.35;4.40;;;12.30;99.90;;;;;;4994835;28;20084;-85
2023/05/23 04:40:23;;;;;;;20.17;4.30;;;12.30;99.90;;;;;;5011204;28;20121;-84
2023/05/23 04:42:55;;;;;;;16.58;4.07;;;12.30;99.90;;;;;;5012294;28;20113;-86
2023/05/23 04:45:30;;;;;;;15.18;5.00;;;11.30;99.90;;;;;;5012891;28;20041;-82
2023/05/23 04:47:56;;;;;;;18.83;5.50;;;12.30;99.90;;;;;;4991664;28;20030;-83
2023/05/23 04:50:22;;;;;;;19.65;5.72;;;12.20;99.90;;;;;;5010767;28;20556;-83
2023/05/23 04:52:48;;;;;;;19.95;6.65;;;13.20;99.90;;;;;;5010494;28;20113;-81
2023/05/23 04:55:13;;;;;;;17.27;6.22;;;12.20;99.90;;;;;;5017122;28;20129;-87
2023/05/23 04:57:39;;;;;;;19.08;7.35;;;12.10;99.90;;;;;;5019718;28;20411;-86
2023/05/23 05:00:11;;;;;;;23.73;6.43;;;12.10;99.90;;;;;;5011576;28;20080;-85
2023/05/23 05:02:38;;;;;;;24.08;7.00;;;11.90;99.90;;;;;;5010257;28;20045;-86
2023/05/23 05:05:04;;;;;;;22.08;7.05;;;13.40;99.90;;;;;;5019767;28;20034;-84
2023/05/23 05:07:30;;;;;;;15.48;5.93;;;11.90;99.90;;;;;;5015348;28;20034;-86
2023/05/23 05:09:56;;;;;;;12.75;5.53;;;11.90;99.90;;;;;;5008979;28;20503;-80
2023/05/23 05:12:21;;;;;;;16.85;5.97;;;11.80;99.90;;;;;;5008838;28;20046;-84
2023/05/23 05:14:47;;;;;;;16.85;5.00;;;12.60;99.90;;;;;;5009561;28;20108;-86
2023/05/23 05:17:12;;;;;;;21.77;9.40;;;11.80;99.90;;;;;;5009106;28;20041;-85
2023/05/23 05:19:38;;;;;;;17.85;6.50;;;11.80;99.90;;;;;;5009409;28;20057;-84
2023/05/23 05:22:04;;;;;;;17.67;8.30;;;11.80;99.90;;;;;;5009333;28;20400;-85
2023/05/23 05:24:31;;;;;;;22.75;6.28;;;13.50;99.90;;;;;;5009236;28;20046;-88
2023/05/23 05:26:57;;;;;;;17.77;6.15;;;12.20;99.90;;;;;;5009282;28;20038;-88
2023/05/23 05:29:22;;;;;;;19.38;5.40;;;11.70;99.90;;;;;;5008908;28;20429;-86
2023/05/23 05:31:48;;;;;;;18.55;5.43;;;11.70;99.90;;;;;;5013202;28;20477;-84
2023/05/23 05:34:14;;;;;;;22.98;5.10;;;11.70;99.90;;;;;;5012111;28;20101;-81
2023/05/23 05:36:46;;;;;;;14.30;5.05;;;11.70;99.90;;;;;;5012567;28;20034;-78
2023/05/23 05:39:15;;;;;;;11.98;5.43;;;11.70;99.90;;;;;;5012468;28;20477;-84
2023/05/23 05:41:41;;;;;;;18.40;5.47;;;11.60;99.90;;;;;;5012571;28;20042;-86
2023/05/23 05:44:08;;;;;;;14.55;5.40;;;11.60;99.90;;;;;;4993453;28;20054;-84
2023/05/23 05:46:34;;;;;;;16.63;11.55;;;12.80;99.90;;;;;;4978688;28;20066;-86
2023/05/23 05:49:00;;;;;;;16.45;5.18;;;13.40;99.90;;;;;;4978225;28;20850;-84
2023/05/23 05:51:25;;;;;;;13.85;4.25;;;11.50;99.90;;;;;;4995637;28;20050;-81
2023/05/23 05:53:51;;;;;;;10.48;4.95;;;11.50;99.90;;;;;;4978658;28;20105;-81
2023/05/23 05:56:16;;;;;;;14.13;4.65;;;13.30;99.90;;;;;;5011413;28;20702;-81
2023/05/23 05:58:42;;;;;;;9.77;3.78;;;13.10;99.90;;;;;;5011451;28;20088;-84
2023/05/23 06:01:08;;;;;;;9.90;3.75;;;10.70;99.90;;;;;;5012005;28;20108;-85
2023/05/23 06:03:34;;;;;;;11.05;4.03;;;11.60;99.90;;;;;;5015578;28;20038;-79
2023/05/23 06:05:59;;;;;;;13.82;3.72;;;11.60;99.90;;;;;;5011421;28;20541;-83
2023/05/23 06:08:25;;;;;;;11.07;3.28;;;13.20;99.90;;;;;;5011963;28;20590;-83
2023/05/23 06:10:51;;;;;;;10.18;3.03;;;11.60;99.90;;;;;;5014062;28;20519;-80
2023/05/23 06:13:16;;;;;;;15.10;3.75;;;11.60;99.90;;;;;;4995432;28;20069;-78
2023/05/23 06:15:42;;;;;;;13.10;3.90;;;11.60;99.90;;;;;;5016546;28;20060;-83
2023/05/23 06:18:08;;;;;;;8.85;3.00;;;11.60;99.90;;;;;;4993357;28;20058;-82
2023/05/23 06:20:34;;;;;;;14.95;3.75;;;11.60;99.90;;;;;;4993222;28;20107;-82
2023/05/23 06:23:00;;;;;;;17.48;4.22;;;11.60;99.90;;;;;;4993871;28;20547;-85
2023/05/23 06:25:26;;;;;;;14.02;3.55;;;11.60;99.90;;;;;;5011189;28;20127;-80
2023/05/23 06:27:51;;;;;;;17.75;4.20;;;12.70;99.90;;;;;;5011725;28;20038;-87
2023/05/23 06:30:17;;;;;;;14.20;4.85;;;11.60;99.90;;;;;;5013712;28;20046;-83
2023/05/23 06:32:43;;;;;;;19.98;7.15;;;11.60;99.90;;;;;;5013210;28;20197;-83
2023/05/23 06:35:09;;;;;;;15.50;4.43;;;13.50;99.90;;;;;;5012044;28;20512;-80
2023/05/23 06:37:34;;;;;;;21.27;4.60;;;11.60;99.90;;;;;;5013488;28;20069;-80
2023/05/23 06:40:00;;;;;;;16.60;3.92;;;11.60;99.90;;;;;;4996347;28;20122;-83
2023/05/23 06:42:26;;;;;;;16.35;4.30;;;11.60;99.90;;;;;;5018613;28;20101;-84
2023/05/23 06:44:52;;;;;;;19.45;4.47;;;11.60;99.90;;;;;;5021684;28;20485;-84
2023/05/23 06:47:18;;;;;;;16.75;3.78;;;11.60;99.90;;;;;;5015303;28;20073;-80
2023/05/23 06:49:44;;;;;;;15.75;4.40;;;11.70;99.90;;;;;;5013222;28;20690;-81
2023/05/23 06:52:10;;;;;;;23.75;4.70;;;11.70;99.90;;;;;;5013229;28;20060;-85
2023/05/23 06:54:35;;;;;;;20.63;4.30;;;11.70;99.90;;;;;;4995487;28;20042;-83
2023/05/23 06:57:01;;;;;;;15.63;4.25;;;11.70;99.90;;;;;;5005511;28;20483;-87
2023/05/23 06:59:27;;;;;;;23.33;4.07;;;12.30;99.90;;;;;;4997074;28;20046;-86
2023/05/23 07:01:52;;;;;;;23.40;4.15;;;13.60;99.90;;;;;;5009028;28;20038;-84
2023/05/23 07:04:18;;;;;;;18.65;3.80;;;11.90;99.90;;;;;;5011910;28;20219;-84
2023/05/23 07:06:44;;;;;;;20.27;4.00;;;11.90;99.90;;;;;;5001280;28;20513;-82
2023/05/23 07:09:10;;;;;;;20.92;3.58;;;12.90;99.90;;;;;;4662361;28;9999977;-80
2023/05/23 07:11:38;;;;;;;20.30;4.40;;;12.10;99.90;;;;;;5002251;28;20050;-80
2023/05/23 07:14:04;;;;;;;19.13;3.85;;;12.30;99.90;;;;;;5009410;28;20588;-81
2023/05/23 07:16:30;;;;;;;30.05;4.85;;;11.90;99.90;;;;;;5004360;28;20050;-80
2023/05/23 07:18:56;;;;;;;15.15;3.85;;;11.90;99.90;;;;;;5009230;28;20080;-80
2023/05/23 07:21:21;;;;;;;22.45;3.92;;;12.70;99.90;;;;;;5008822;28;20130;-80
2023/05/23 07:23:47;;;;;;;24.88;4.85;;;11.80;99.90;;;;;;5009027;28;20080;-82
2023/05/23 07:26:12;;;;;;;24.27;4.15;;;11.80;99.90;;;;;;4991196;28;20038;-81
2023/05/23 07:28:38;;;;;;;22.60;3.92;;;11.80;99.90;;;;;;5012326;28;20049;-81
2023/05/23 07:31:04;;;;;;;20.08;3.75;;;11.80;99.90;;;;;;4993455;28;20448;-80
2023/05/23 07:33:30;;;;;;;22.45;4.22;;;11.80;99.90;;;;;;5011147;28;20070;-80
2023/05/23 07:35:55;;;;;;;19.08;3.67;;;11.80;99.90;;;;;;5010759;28;20042;-80
2023/05/23 07:38:21;;;;;;;14.15;3.70;;;13.00;99.90;;;;;;5010146;28;20049;-80
2023/05/23 07:40:46;;;;;;;16.10;3.80;;;11.90;99.90;;;;;;4993247;28;20042;-80
2023/05/23 07:43:13;;;;;;;11.60;3.20;;;11.80;99.90;;;;;;5056244;23;20053;-80
2023/05/23 07:45:39;;;;;;;18.30;4.20;;;11.90;99.90;;;;;;5011770;28;20054;-81
2023/05/23 07:48:04;;;;;;;17.33;3.80;;;11.90;99.90;;;;;;5010301;28;20050;-81
2023/05/23 07:50:32;;;;;;;19.33;4.95;;;11.90;99.90;;;;;;5001317;28;20073;-80
2023/05/23 07:52:57;;;;;;;29.05;3.90;;;12.00;99.90;;;;;;4990250;28;20037;-80
2023/05/23 07:55:23;;;;;;;20.70;4.40;;;12.00;99.90;;;;;;5013157;28;20509;-80
2023/05/23 07:57:48;;;;;;;17.60;3.72;;;11.00;99.90;;;;;;5003996;28;20529;-80
2023/05/23 08:00:15;;;;;;;17.65;3.55;;;12.10;99.90;;;;;;5006402;28;20508;-79
2023/05/23 08:02:40;;;;;;;18.38;3.83;;;12.10;99.90;;;;;;5004048;28;20414;-80
2023/05/23 08:05:09;;;;;;;15.35;3.60;;;12.10;99.90;;;;;;4992129;28;20874;-80
2023/05/23 08:07:36;;;;;;;20.00;4.32;;;12.10;99.90;;;;;;5002401;28;20035;-80
2023/05/23 08:10:02;;;;;;;15.68;3.63;;;12.20;99.90;;;;;;4988790;28;20124;-79
2023/05/23 08:12:27;;;;;;;22.83;4.00;;;12.20;99.90;;;;;;5010951;28;20397;-79
2023/05/23 08:14:53;;;;;;;14.80;3.90;;;12.30;99.90;;;;;;5012040;28;20045;-80
2023/05/23 08:17:19;;;;;;;18.02;3.70;;;12.30;99.90;;;;;;5002582;28;20066;-78
2023/05/23 08:19:45;;;;;;;16.73;3.60;;;14.20;99.90;;;;;;5009094;28;20034;-78
2023/05/23 08:22:10;;;;;;;22.15;4.40;;;12.40;99.90;;;;;;5010697;28;20042;-78
2023/05/23 08:24:36;;;;;;;18.13;3.75;;;12.50;99.90;;;;;;5005681;28;20045;-79
2023/05/23 08:27:06;;;;;;;21.00;3.80;;;12.50;99.90;;;;;;5006061;28;20038;-79
2023/05/23 08:29:34;;;;;;;12.48;3.55;;;12.60;99.90;;;;;;5012934;28;20042;-79
2023/05/23 08:32:00;;;;;;;18.63;4.28;;;12.60;99.90;;;;;;5005903;28;20038;-78
2023/05/23 08:34:25;;;;;;;21.75;4.32;;;12.60;99.90;;;;;;5013718;28;20049;-78
2023/05/23 08:36:51;;;;;;;21.73;4.63;;;13.70;99.90;;;;;;5012634;28;20037;-80
2023/05/23 08:39:17;;;;;;;19.13;4.00;;;12.70;99.90;;;;;;5010898;28;20042;-81
2023/05/23 08:41:43;;;;;;;22.75;4.00;;;12.60;99.90;;;;;;5008427;28;20034;-81
2023/05/23 08:44:09;;;;;;;14.85;3.67;;;12.70;99.90;;;;;;5003735;28;20092;-81
2023/05/23 08:46:44;;;;;;;14.88;3.45;;;12.90;99.90;;;;;;4983260;28;20048;-83
2023/05/23 08:49:13;;;;;;;14.60;3.13;;;12.70;99.90;;;;;;4991746;28;20060;-82
2023/05/23 08:51:42;;;;;;;15.82;3.58;;;12.70;99.90;;;;;;5002498;28;20485;-82
2023/05/23 08:54:11;;;;;;;19.02;3.63;;;13.90;99.90;;;;;;5009908;28;20085;-81
2023/05/23 08:56:44;;;;;;;22.02;4.03;;;12.70;99.90;;;;;;5005255;28;20045;-82
2023/05/23 08:59:11;;;;;;;12.07;3.53;;;12.70;99.90;;;;;;5002754;28;20050;-81
2023/05/23 09:01:38;;;;;;;19.33;4.18;;;12.80;99.90;;;;;;5002469;28;20050;-84
2023/05/23 09:04:05;;;;;;;17.35;3.65;;;13.50;99.90;;;;;;4984228;28;20037;-81
2023/05/23 09:06:31;;;;;;;24.02;4.70;;;13.00;99.90;;;;;;5008741;28;20053;-81
2023/05/23 09:08:57;;;;;;;14.50;3.25;;;12.90;99.90;;;;;;5013169;28;20045;-80
2023/05/23 09:11:24;;;;;;;17.80;4.00;;;12.90;99.90;;;;;;5010047;28;20042;-82
2023/05/23 09:13:52;;;;;;;20.38;4.05;;;13.20;99.90;;;;;;5005808;28;20046;-81
2023/05/23 09:16:18;;;;;;;17.30;3.45;;;13.80;99.90;;;;;;5011370;28;20116;-83
2023/05/23 09:18:44;;;;;;;40.03;24.83;;;13.10;99.90;;;;;;5012301;28;20181;-82
2023/05/23 09:21:12;;;;;;;16.38;3.25;;;13.10;99.90;;;;;;4993049;28;20625;-83
2023/05/23 09:23:39;;;;;;;17.35;3.60;;;13.50;99.90;;;;;;5005833;28;20109;-82
2023/05/23 09:26:07;;;;;;;29.17;4.30;;;13.10;99.90;;;;;;5002293;28;20037;-82
2023/05/23 09:28:34;;;;;;;19.30;3.83;;;13.10;99.90;;;;;;5008170;28;20049;-82
2023/05/23 09:31:01;;;;;;;16.35;3.45;;;13.20;99.90;;;;;;5007001;28;20045;-82
2023/05/23 09:33:38;;;;;;;21.90;4.78;;;13.80;99.90;;;;;;5008534;28;20050;-80
2023/05/23 09:36:07;;;;;;;18.98;3.70;;;13.20;99.90;;;;;;5008483;28;20044;-83
2023/05/23 09:38:40;;;;;;;20.38;3.67;;;13.20;99.90;;;;;;5009153;28;20042;-82
2023/05/23 09:41:07;;;;;;;18.05;4.10;;;13.30;99.90;;;;;;5012126;28;20042;-82
2023/05/23 09:43:33;;;;;;;14.85;3.63;;;13.30;99.90;;;;;;4991491;28;20128;-83
2023/05/23 09:46:09;;;;;;;14.07;3.20;;;13.30;99.90;;;;;;5009375;28;20180;-82
2023/05/23 09:48:35;;;;;;;15.90;3.70;;;13.40;99.90;;;;;;5008708;28;20045;-81
2023/05/23 09:51:05;;;;;;;14.27;3.35;;;14.00;99.90;;;;;;4991256;28;20052;-83
2023/05/23 09:53:31;;;;;;;23.33;3.70;;;13.40;99.90;;;;;;5010505;28;20489;-80
2023/05/23 09:55:59;;;;;;;17.90;4.20;;;13.40;99.90;;;;;;5011211;28;20118;-82
2023/05/23 09:58:26;;;;;;;22.73;3.65;;;13.40;99.90;;;;;;5011388;28;20041;-83
2023/05/23 10:00:55;;;;;;;18.02;4.30;;;13.70;99.90;;;;;;5004618;28;20116;-82
2023/05/23 10:03:31;;;;;;;19.27;5.35;;;13.50;99.90;;;;;;5012299;28;20177;-79
2023/05/23 10:06:00;;;;;;;19.23;3.35;;;13.50;99.90;;;;;;5006455;28;20060;-82
2023/05/23 10:08:41;;;;;;;15.07;3.33;;;13.50;99.90;;;;;;5006815;28;20069;-82
2023/05/23 10:11:13;;;;;;;16.00;3.55;;;13.40;99.90;;;;;;5007370;28;20042;-81
2023/05/23 10:13:48;;;;;;;23.55;4.35;;;13.50;99.90;;;;;;5012742;28;20180;-82
2023/05/23 10:16:20;;;;;;;17.50;3.83;;;13.50;99.90;;;;;;5016907;28;20956;-80
2023/05/23 10:18:54;;;;;;;19.77;3.47;;;13.80;99.90;;;;;;5019792;28;20046;-82
2023/05/23 10:21:32;;;;;;;19.75;3.83;;;13.50;99.90;;;;;;5011854;28;20379;-81
2023/05/23 10:24:03;;;;;;;25.35;3.78;;;13.60;99.90;;;;;;4985484;28;20042;-82
2023/05/23 10:26:29;;;;;;;18.08;3.85;;;13.70;99.90;;;;;;5002607;28;20133;-85
2023/05/23 10:28:56;;;;;;;18.98;3.40;;;13.70;99.90;;;;;;5011575;28;20121;-80
2023/05/23 10:31:23;;;;;;;20.48;3.42;;;14.70;99.90;;;;;;5011464;28;20168;-84
2023/05/23 10:34:10;;;;;;;18.42;2.83;;;13.70;99.90;;;;;;5007400;28;20042;-82
2023/05/23 10:37:03;;;;;;;14.35;2.88;;;13.60;99.90;;;;;;5007886;28;20046;-80
2023/05/23 10:39:57;;;;;;;11.05;3.28;;;13.70;99.90;;;;;;5009773;28;20450;-80
2023/05/23 10:42:51;;;;;;;17.67;3.42;;;13.70;99.90;;;;;;5006709;28;20046;-80
2023/05/23 10:45:18;;;;;;;13.57;4.63;;;13.90;99.90;;;;;;5005952;28;20062;-80
2023/05/23 10:47:49;;;;;;;19.00;6.68;;;14.10;99.90;;;;;;5011221;28;20038;-80
2023/05/23 10:50:32;;;;;;;20.20;3.50;;;14.10;99.90;;;;;;4992534;28;20050;-81
2023/05/23 10:53:00;;;;;;;14.00;3.30;;;14.30;99.90;;;;;;4982611;28;20042;-85
2023/05/23 10:55:31;;;;;;;15.35;3.33;;;14.20;99.90;;;;;;4986177;28;20046;-82
2023/05/23 10:58:16;;;;;;;13.93;3.30;;;14.20;99.90;;;;;;5002897;28;20501;-85
2023/05/23 11:00:55;;;;;;;22.75;3.63;;;14.00;99.90;;;;;;5009792;28;20573;-84
2023/05/23 11:03:47;;;;;;;18.63;3.40;;;14.00;99.90;;;;;;5014417;28;20480;-82
2023/05/23 11:06:43;;;;;;;20.48;3.95;;;14.40;99.90;;;;;;5006819;28;20057;-80
2023/05/23 11:09:18;;;;;;;19.92;3.72;;;13.80;99.90;;;;;;5004081;28;20048;-83
2023/05/23 11:11:59;;;;;;;19.88;4.45;;;14.80;99.90;;;;;;5010851;28;20081;-84
2023/05/23 11:14:32;;;;;;;16.40;3.08;;;13.80;99.90;;;;;;5010409;28;20054;-84
2023/05/23 11:17:16;;;;;;;17.17;3.85;;;13.80;99.90;;;;;;5012024;28;20042;-85
2023/05/23 11:20:02;;;;;;;16.27;3.42;;;13.80;99.90;;;;;;5011389;28;20069;-85
2023/05/23 11:22:31;;;;;;;18.55;3.15;;;13.80;99.90;;;;;;5006325;28;20100;-82
2023/05/23 11:24:57;;;;;;;19.52;3.60;;;13.90;99.90;;;;;;5004935;28;20497;-82
2023/05/23 11:27:35;;;;;;;11.55;2.95;;;15.40;99.90;;;;;;5008930;28;20551;-86
2023/05/23 11:30:13;;;;;;;14.35;3.10;;;14.10;99.90;;;;;;5004232;28;20026;-86
2023/05/23 11:32:39;;;;;;;16.02;3.30;;;14.00;99.90;;;;;;5008298;28;20988;-83
2023/05/23 11:35:10;;;;;;;16.05;3.67;;;14.00;99.90;;;;;;4990107;28;20053;-84
2023/05/23 11:37:37;;;;;;;17.35;4.00;;;14.10;99.90;;;;;;4989175;28;20513;-82
2023/05/23 11:40:26;;;;;;;20.83;3.15;;;14.40;99.90;;;;;;4997585;28;20133;-86
2023/05/23 11:42:53;;;;;;;17.65;3.50;;;14.10;99.90;;;;;;5006864;28;20042;-79
2023/05/23 11:45:19;;;;;;;19.02;3.65;;;14.30;99.90;;;;;;4995322;28;20042;-86
2023/05/23 11:47:44;;;;;;;12.18;3.08;;;14.30;99.90;;;;;;4996582;28;20041;-85
2023/05/23 11:50:10;;;;;;;16.02;3.72;;;14.40;99.90;;;;;;4999671;28;20034;-83
2023/05/23 11:52:36;;;;;;;16.13;3.25;;;14.50;99.90;;;;;;4998979;28;20116;-87
2023/05/23 11:55:02;;;;;;;26.35;6.78;;;13.40;99.90;;;;;;4999680;28;20049;-77
2023/05/23 11:57:31;;;;;;;21.30;4.28;;;14.30;99.90;;;;;;4989032;28;20093;-82
2023/05/23 11:59:57;;;;;;;18.27;3.28;;;14.40;99.90;;;;;;4986923;28;20448;-83
2023/05/23 12:02:29;;;;;;;11.57;2.65;;;15.80;99.90;;;;;;5007864;28;20116;-81
2023/05/23 12:04:55;;;;;;;12.43;1.83;;;14.60;99.90;;;;;;4990120;28;20060;-82
2023/05/23 12:07:20;;;;;;;11.45;2.30;;;14.60;99.90;;;;;;5006637;28;20034;-81
2023/05/23 12:09:46;;;;;;;14.32;2.90;;;14.60;99.90;;;;;;5007691;28;20069;-79
2023/05/23 12:12:13;;;;;;;15.23;3.47;;;15.90;99.90;;;;;;5008667;28;20038;-85
2023/05/23 12:14:43;;;;;;;15.23;2.83;;;14.80;99.90;;;;;;4996958;28;20421;-85
2023/05/23 12:17:12;;;;;;;18.17;4.03;;;14.40;99.90;;;;;;5000814;28;20702;-82
2023/05/23 12:19:39;;;;;;;19.63;4.28;;;15.80;99.90;;;;;;5003117;28;20052;-82
2023/05/23 12:22:06;;;;;;;19.83;3.00;;;15.20;99.90;;;;;;5010071;28;20034;-84
2023/05/23 12:24:33;;;;;;;15.00;3.08;;;14.30;99.90;;;;;;5005934;28;20116;-87
2023/05/23 12:27:00;;;;;;;13.93;2.80;;;15.80;99.90;;;;;;4982086;28;20066;-81
2023/05/23 12:29:31;;;;;;;17.83;3.75;;;14.50;99.90;;;;;;5001359;28;20061;-82
2023/05/23 12:32:01;;;;;;;16.10;2.28;;;16.20;99.90;;;;;;4980146;28;20078;-84
2023/05/23 12:34:28;;;;;;;12.93;2.53;;;15.30;99.90;;;;;;4992520;28;20490;-84
2023/05/23 12:36:58;;;;;;;10.80;2.55;;;16.60;99.90;;;;;;4999459;28;20044;-81
2023/05/23 12:39:27;;;;;;;15.10;2.80;;;14.60;99.90;;;;;;4993182;28;20076;-86